Time;durP1;ratioP1;P1;durP2;ratioP2;P2;SDS_P1;SDS_P2;PMS_P1;PMS_P2;Temp;Humidity;BMP_temperature;BMP_pressure;BME280_temperature;BME280_humidity;BME280_pressure;Samples;Min_cycle;Max_cycle;Signal;HPM_P1;HPM_P2
2021/09/29 00:01:01;;;;;;;8.30;4.27;;;16.10;99.90;;;;;;6195325;23;20225;-93
2021/09/29 00:04:18;;;;;;;7.77;3.97;;;16.00;99.90;;;;;;6205055;23;20162;-95
2021/09/29 00:06:43;;;;;;;9.13;4.23;;;16.10;99.90;;;;;;6225087;23;20161;-93
2021/09/29 00:09:12;;;;;;;8.73;4.27;;;16.20;99.90;;;;;;6204831;23;20217;-94
2021/09/29 00:12:32;;;;;;;;;;;;;;;;;;;;;
2021/09/29 00:15:14;;;;;;;8.60;4.13;;;16.10;99.90;;;;;;6223794;23;20191;-96
2021/09/29 00:17:45;;;;;;;6.13;3.97;;;16.10;99.90;;;;;;6204392;23;20162;-95
2021/09/29 00:20:18;;;;;;;7.93;4.23;;;16.10;99.90;;;;;;6205509;23;20132;-96
2021/09/29 00:23:22;;;;;;;7.13;3.70;;;16.00;99.90;;;;;;6206719;23;20147;-96
2021/09/29 00:26:08;;;;;;;6.70;3.40;;;16.00;99.90;;;;;;6206241;23;20153;-94
2021/09/29 00:29:02;;;;;;;10.80;3.63;;;15.90;99.90;;;;;;6203522;23;20238;-95
2021/09/29 00:35:22;;;;;;;;;;;;;;;;;;;;;
2021/09/29 00:38:30;;;;;;;;;;;;;;;;;;;;;
2021/09/29 00:41:43;;;;;;;;;;;;;;;;;;;;;
2021/09/29 00:45:02;;;;;;;6.70;3.30;;;15.90;99.90;;;;;;6202613;23;20165;-93
2021/09/29 00:54:59;;;;;;;;;;;;;;;;;;;;;
2021/09/29 00:58:07;;;;;;;;;;;;;;;;;;;;;
2021/09/29 01:04:06;;;;;;;7.83;3.07;;;16.10;99.90;;;;;;6107270;23;20155;-95
2021/09/29 01:10:34;;;;;;;;;;;;;;;;;;;;;
2021/09/29 01:13:55;;;;;;;;;;;;;;;;;;;;;
2021/09/29 01:17:31;;;;;;;;;;;;;;;;;;;;;
2021/09/29 01:27:03;;;;;;;8.43;2.50;;;15.70;99.90;;;;;;6139573;23;20156;-95
2021/09/29 01:30:05;;;;;;;;;;;;;;;;;;;;;
2021/09/29 01:32:58;;;;;;;;;;;;;;;;;;;;;
2021/09/29 01:39:21;;;;;;;;;;;;;;;;;;;;;
2021/09/29 01:41:49;;;;;;;6.93;2.23;;;15.70;99.90;;;;;;6221018;23;20530;-94
2021/09/29 01:45:06;;;;;;;6.53;2.33;;;15.70;99.90;;;;;;6198023;23;20234;-94
2021/09/29 01:48:12;;;;;;;6.00;2.53;;;15.70;99.90;;;;;;6194350;23;20161;-94
2021/09/29 01:50:42;;;;;;;5.53;2.47;;;15.60;99.90;;;;;;6219767;23;20153;-94
2021/09/29 01:53:48;;;;;;;;;;;;;;;;;;;;;
2021/09/29 01:56:48;;;;;;;6.20;2.63;;;15.60;99.90;;;;;;6220884;23;20268;-92
2021/09/29 01:59:38;;;;;;;5.77;2.77;;;15.70;99.90;;;;;;6194695;23;20477;-93
2021/09/29 02:02:04;;;;;;;7.93;2.60;;;15.70;99.90;;;;;;6194208;23;20205;-95
2021/09/29 02:04:38;;;;;;;5.13;2.30;;;15.60;99.90;;;;;;6194907;23;20198;-93
2021/09/29 02:07:13;;;;;;;5.53;2.50;;;15.60;99.90;;;;;;6195907;23;20179;-93
2021/09/29 02:09:41;;;;;;;6.27;3.13;;;15.70;99.90;;;;;;6196053;23;20272;-93
2021/09/29 02:12:28;;;;;;;10.60;2.80;;;15.70;99.90;;;;;;6196563;23;20144;-94
2021/09/29 02:15:02;;;;;;;8.23;2.47;;;15.90;99.90;;;;;;6222034;23;20238;-94
2021/09/29 02:17:29;;;;;;;9.10;2.60;;;15.80;99.90;;;;;;6193781;23;20169;-94
2021/09/29 02:20:03;;;;;;;9.13;2.50;;;15.70;99.90;;;;;;6194077;23;20154;-94
2021/09/29 02:22:30;;;;;;;5.43;2.40;;;15.70;99.90;;;;;;6194110;23;20588;-95
2021/09/29 02:24:58;;;;;;;5.00;2.03;;;15.70;99.90;;;;;;6193767;23;20156;-96
2021/09/29 02:27:26;;;;;;;4.67;1.70;;;15.70;99.90;;;;;;6194673;23;20148;-94
2021/09/29 02:30:22;;;;;;;;;;;;;;;;;;;;;
2021/09/29 02:33:14;;;;;;;7.73;1.93;;;15.90;99.90;;;;;;6222476;23;20160;-95
2021/09/29 02:36:13;;;;;;;;;;;;;;;;;;;;;
2021/09/29 02:38:51;;;;;;;9.37;2.07;;;15.80;99.90;;;;;;6222337;23;20155;-93
2021/09/29 02:41:20;;;;;;;10.23;2.20;;;15.80;99.90;;;;;;6194140;23;20675;-95
2021/09/29 02:44:08;;;;;;;4.63;1.80;;;15.70;99.90;;;;;;6194962;23;20152;-95
2021/09/29 02:46:54;;;;;;;4.97;2.00;;;15.60;99.90;;;;;;6194021;23;20157;-93
2021/09/29 02:57:27;;;;;;;;;;;;;;;;;;;;;
2021/09/29 03:03:56;;;;;;;7.03;1.87;;;15.50;99.90;;;;;;6013757;23;20546;-93
2021/09/29 03:10:30;;;;;;;;;;;;;;;;;;;;;
2021/09/29 03:13:47;;;;;;;;;;;;;;;;;;;;;
2021/09/29 03:20:45;;;;;;;7.33;1.50;;;15.50;99.90;;;;;;5929364;24;20158;-94
2021/09/29 03:27:27;;;;;;;7.60;1.40;;;15.40;99.90;;;;;;6011715;23;20163;-95
2021/09/29 03:33:07;;;;;;;7.93;1.43;;;15.30;99.90;;;;;;6014292;23;20201;-92
2021/09/29 03:35:58;;;;;;;4.60;1.30;;;15.30;99.90;;;;;;6182551;23;20239;-95
2021/09/29 03:38:24;;;;;;;9.97;1.77;;;15.00;99.90;;;;;;6118936;23;20158;-92
2021/09/29 03:41:34;;;;;;;11.67;2.00;;;14.90;99.90;;;;;;6192476;23;20645;-92
2021/09/29 03:44:00;;;;;;;3.00;1.30;;;14.60;99.90;;;;;;6190593;23;20155;-94
2021/09/29 03:46:26;;;;;;;6.27;2.03;;;14.40;99.90;;;;;;6189808;23;20156;-93
2021/09/29 03:49:05;;;;;;;7.43;2.30;;;14.30;99.90;;;;;;6190546;23;20188;-91
2021/09/29 03:51:31;;;;;;;5.17;1.90;;;14.30;99.90;;;;;;6190725;23;20574;-95
2021/09/29 03:53:58;;;;;;;4.77;1.50;;;14.40;99.90;;;;;;6191153;23;20652;-94
2021/09/29 03:56:26;;;;;;;6.43;1.70;;;14.30;99.90;;;;;;6191010;23;20493;-92
2021/09/29 03:58:52;;;;;;;7.97;2.10;;;14.30;99.90;;;;;;6192394;23;20190;-92
2021/09/29 04:01:21;;;;;;;7.80;1.97;;;14.30;99.90;;;;;;6190770;23;20148;-91
2021/09/29 04:03:49;;;;;;;5.43;2.03;;;14.30;99.90;;;;;;6191759;23;20161;-91
2021/09/29 04:06:15;;;;;;;7.67;2.53;;;14.30;99.90;;;;;;6194070;23;20157;-91
2021/09/29 04:09:00;;;;;;;6.70;1.90;;;14.20;99.90;;;;;;6193913;23;20188;-91
2021/09/29 04:38:32;;;;;;;9.33;1.63;;;14.80;99.90;;;;;;6230180;22;20209;-95
2021/09/29 04:40:58;;;;;;;5.63;1.50;;;14.60;99.90;;;;;;6222528;23;20155;-95
2021/09/29 04:43:51;;;;;;;5.30;1.60;;;14.60;99.90;;;;;;6222004;23;20238;-94
2021/09/29 04:46:20;;;;;;;4.40;1.40;;;14.40;99.90;;;;;;6223762;23;20165;-93
2021/09/29 04:49:04;;;;;;;7.90;1.57;;;14.50;99.90;;;;;;6221358;23;20244;-94
2021/09/29 04:51:33;;;;;;;6.13;1.43;;;14.50;99.90;;;;;;6221240;23;20156;-94
2021/09/29 04:54:02;;;;;;;6.73;1.70;;;14.50;99.90;;;;;;6223968;23;20156;-93
2021/09/29 04:56:33;;;;;;;3.27;1.80;;;14.50;99.90;;;;;;6223701;23;20243;-94
2021/09/29 04:59:04;;;;;;;8.83;1.50;;;14.40;99.90;;;;;;6226169;23;20173;-96
2021/09/29 05:02:03;;;;;;;;;;;;;;;;;;;;;
2021/09/29 05:04:45;;;;;;;6.13;1.67;;;14.40;99.90;;;;;;6251494;23;20179;-95
2021/09/29 05:07:21;;;;;;;4.60;2.00;;;14.40;99.90;;;;;;6227986;23;20145;-96
2021/09/29 05:09:59;;;;;;;5.00;1.53;;;14.50;99.90;;;;;;6234677;23;20175;-95
2021/09/29 07:05:29;;;;;;;2.57;1.00;;;14.30;99.90;;;;;;6239377;23;20201;-93
2021/09/29 07:12:01;;;;;;;3.97;0.90;;;14.00;99.90;;;;;;6173081;23;20162;-93
2021/09/29 07:18:19;;;;;;;;;;;;;;;;;;;;;
2021/09/29 07:21:06;;;;;;;4.87;0.80;;;13.80;99.90;;;;;;6240008;23;20182;-94
2021/09/29 07:30:28;;;;;;;1.17;0.60;;;13.90;99.90;;;;;;6255638;23;20166;-93
2021/09/29 07:33:12;;;;;;;3.63;0.70;;;14.00;99.90;;;;;;6100535;23;20190;-93
2021/09/29 07:39:51;;;;;;;;;;;;;;;;;;;;;
2021/09/29 07:42:20;;;;;;;3.20;0.80;;;14.00;99.90;;;;;;6244918;23;20609;-92
2021/09/29 07:45:17;;;;;;;2.23;0.57;;;14.20;99.90;;;;;;6247627;23;20147;-93
2021/09/29 07:48:47;;;;;;;1.10;0.50;;;14.30;99.90;;;;;;6097726;23;20165;-93
2021/09/29 07:52:04;;;;;;;;;;;;;;;;;;;;;
2021/09/29 07:57:48;;;;;;;2.20;1.07;;;14.30;99.90;;;;;;5924169;23;20166;-92
2021/09/29 08:00:43;;;;;;;;;;;;;;;;;;;;;
2021/09/29 08:07:33;;;;;;;2.73;0.83;;;14.40;99.90;;;;;;5841845;24;20180;-93
2021/09/29 08:10:31;;;;;;;;;;;;;;;;;;;;;
2021/09/29 08:13:53;;;;;;;4.40;0.80;;;14.30;99.90;;;;;;5873490;24;20243;-92
2021/09/29 08:19:54;;;;;;;2.10;0.97;;;14.00;99.90;;;;;;6082698;23;20253;-92
2021/09/29 08:33:16;;;;;;;;;;;;;;;;;;;;;
2021/09/29 08:46:58;;;;;;;;;;;;;;;;;;;;;
2021/09/29 09:16:34;;;;;;;;;;;;;;;;;;;;;
2021/09/29 09:19:35;;;;;;;;;;;;;;;;;;;;;
2021/09/29 09:22:35;;;;;;;4.37;2.20;;;15.40;99.90;;;;;;6254019;23;20201;-92
2021/09/29 09:25:22;;;;;;;;;;;;;;;;;;;;;
2021/09/29 09:30:53;;;;;;;3.47;2.10;;;15.20;99.90;;;;;;6257796;23;20150;-93
2021/09/29 09:37:02;;;;;;;6.00;2.50;;;15.20;99.90;;;;;;6249519;23;20201;-94
2021/09/29 09:40:25;;;;;;;5.20;2.77;;;15.70;99.90;;;;;;6256017;23;20160;-93
2021/09/29 09:43:22;;;;;;;;;;;;;;;;;;;;;
2021/09/29 09:45:46;;;;;;;6.10;2.30;;;15.50;99.90;;;;;;6246822;23;20159;-92
2021/09/29 09:52:01;;;;;;;5.97;2.30;;;15.30;99.90;;;;;;6236094;23;20165;-91
2021/09/29 09:54:47;;;;;;;3.40;2.20;;;15.40;99.90;;;;;;6261183;23;20158;-93
2021/09/29 09:57:18;;;;;;;3.13;2.23;;;15.40;99.90;;;;;;6254378;23;20620;-92
2021/09/29 10:00:06;;;;;;;3.43;1.80;;;15.50;99.90;;;;;;6251871;23;20154;-93
2021/09/29 10:02:42;;;;;;;3.17;1.80;;;15.70;99.90;;;;;;6249185;23;20244;-92
2021/09/29 10:05:09;;;;;;;3.23;1.67;;;15.90;99.90;;;;;;6249917;23;20199;-93
2021/09/29 10:08:00;;;;;;;6.53;2.03;;;15.90;99.90;;;;;;6249489;23;20178;-92
2021/09/29 10:28:49;;;;;;;1.93;1.50;;;15.80;99.90;;;;;;6258814;23;20148;-93
2021/09/29 10:34:37;;;;;;;1.93;0.90;;;16.10;99.90;;;;;;6256097;23;20149;-96
2021/09/29 13:05:02;;;;;;;2.13;0.50;;;18.00;99.90;;;;;;5938560;24;20164;-94
2021/09/29 13:11:38;;;;;;;1.70;0.40;;;16.50;99.90;;;;;;5955430;24;20165;-94
2021/09/29 13:36:56;;;;;;;3.40;0.67;;;19.60;93.10;;;;;;6246255;23;20237;-86
2021/09/29 13:39:22;;;;;;;2.63;0.70;;;17.90;95.90;;;;;;6218484;23;20159;-86
2021/09/29 13:42:12;;;;;;;3.80;0.90;;;17.50;98.60;;;;;;6218666;23;20176;-87
2021/09/29 13:44:38;;;;;;;3.57;0.60;;;18.60;98.70;;;;;;6244046;23;20163;-86
2021/09/29 13:47:04;;;;;;;1.63;0.70;;;19.10;95.60;;;;;;6218269;23;20152;-87
2021/09/29 13:49:30;;;;;;;2.43;0.50;;;18.90;95.80;;;;;;6218979;23;20690;-87
2021/09/29 13:52:00;;;;;;;2.53;0.60;;;19.20;95.70;;;;;;6218607;23;20357;-88
2021/09/29 13:54:27;;;;;;;2.40;0.70;;;20.20;95.50;;;;;;6218938;23;20151;-88
2021/09/29 13:59:55;;;;;;;2.60;0.37;;;20.00;94.10;;;;;;6247840;23;20167;-89
2021/09/29 14:29:47;;;;;;;5.33;0.77;;;22.80;85.80;;;;;;6247016;23;20560;-88
2021/09/29 14:32:28;;;;;;;4.63;0.80;;;23.00;85.50;;;;;;6220346;23;20170;-88
2021/09/29 14:34:57;;;;;;;2.43;0.60;;;23.00;85.00;;;;;;6220232;23;20147;-88
2021/09/29 14:37:23;;;;;;;2.87;0.70;;;23.10;85.50;;;;;;6220491;23;20183;-88
2021/09/29 14:39:49;;;;;;;1.73;0.70;;;22.80;85.40;;;;;;6220257;23;20205;-88
2021/09/29 14:42:14;;;;;;;2.90;0.60;;;21.70;87.20;;;;;;6219783;23;20165;-87
2021/09/29 14:44:40;;;;;;;3.37;1.10;;;21.00;89.40;;;;;;6220701;23;20471;-87
2021/09/29 14:47:13;;;;;;;4.53;1.10;;;20.00;90.70;;;;;;6220071;23;20156;-87
2021/09/29 14:49:44;;;;;;;1.53;0.50;;;19.00;92.70;;;;;;6220420;23;20147;-87
2021/09/29 14:52:11;;;;;;;6.97;0.70;;;18.50;93.60;;;;;;6220375;23;20146;-87
2021/09/29 14:54:37;;;;;;;3.37;0.80;;;17.80;94.40;;;;;;6219447;23;20153;-87
2021/09/29 14:57:09;;;;;;;4.23;0.67;;;17.30;95.30;;;;;;6220143;23;20197;-89
2021/09/29 14:59:36;;;;;;;3.50;0.70;;;17.90;95.50;;;;;;6220587;23;20155;-90
2021/09/29 15:02:06;;;;;;;2.33;0.60;;;19.10;94.40;;;;;;6220730;23;20159;-88
2021/09/29 15:04:31;;;;;;;4.27;0.60;;;20.60;92.00;;;;;;6221131;23;20175;-89
2021/09/29 15:06:57;;;;;;;3.43;0.60;;;21.50;90.20;;;;;;6220731;23;20197;-89
2021/09/29 15:09:23;;;;;;;4.17;0.80;;;22.20;89.20;;;;;;6219898;23;20189;-89
2021/09/29 15:11:48;;;;;;;3.83;1.20;;;22.50;86.30;;;;;;6220813;23;20147;-89
2021/09/29 15:14:18;;;;;;;3.90;0.80;;;22.50;87.00;;;;;;6220393;23;20193;-87
2021/09/29 15:17:01;;;;;;;3.20;0.60;;;22.90;85.50;;;;;;6221538;23;20186;-87
2021/09/29 15:19:48;;;;;;;3.60;0.97;;;22.60;82.50;;;;;;6222604;23;20594;-87
2021/09/29 15:25:28;;;;;;;2.80;0.83;;;22.80;82.30;;;;;;6247882;23;20166;-88
2021/09/29 15:28:43;;;;;;;2.67;0.73;;;22.60;82.80;;;;;;6220480;23;20154;-89
2021/09/29 15:49:52;;;;;;;5.17;1.57;;;17.90;93.00;;;;;;6257409;23;20228;-88
2021/09/29 16:32:10;;;;;;;4.80;1.00;;;16.20;96.40;;;;;;6248484;23;20219;-87
2021/09/29 16:34:46;;;;;;;2.37;0.87;;;16.10;97.00;;;;;;6221577;23;20156;-86
2021/09/29 16:37:12;;;;;;;1.97;0.60;;;16.00;96.90;;;;;;6221581;23;20190;-87
2021/09/29 16:39:38;;;;;;;6.47;1.40;;;16.00;97.40;;;;;;6248411;23;20459;-87
2021/09/29 16:42:04;;;;;;;3.77;0.90;;;16.20;97.50;;;;;;6221193;23;20152;-86
2021/09/29 16:44:30;;;;;;;5.70;1.23;;;16.30;97.40;;;;;;6219167;23;20155;-86
2021/09/29 16:46:57;;;;;;;3.03;0.60;;;16.30;97.10;;;;;;6221584;23;20240;-87
2021/09/29 16:49:25;;;;;;;1.07;0.60;;;16.40;96.80;;;;;;6218824;23;20170;-84
2021/09/29 16:52:05;;;;;;;1.13;0.60;;;16.30;96.80;;;;;;6219639;23;20156;-86
2021/09/29 16:54:31;;;;;;;2.77;0.70;;;16.00;97.00;;;;;;6220822;23;20582;-86
2021/09/29 16:56:57;;;;;;;3.27;0.80;;;16.00;97.50;;;;;;6222332;23;20183;-86
2021/09/29 17:01:48;;;;;;;4.20;1.87;;;16.10;97.50;;;;;;6247115;23;20160;-86
2021/09/29 17:04:14;;;;;;;2.70;0.80;;;16.20;97.50;;;;;;6220552;23;20528;-85
2021/09/29 17:06:40;;;;;;;3.63;1.57;;;16.00;97.10;;;;;;6219522;23;20157;-86
2021/09/29 17:09:06;;;;;;;2.80;0.90;;;15.70;97.90;;;;;;6219996;23;20146;-87
2021/09/29 17:11:32;;;;;;;7.03;1.30;;;15.60;98.00;;;;;;6220140;23;20175;-86
2021/09/29 17:13:57;;;;;;;4.10;1.27;;;15.50;98.00;;;;;;6221706;23;20160;-86
2021/09/29 17:16:28;;;;;;;2.37;0.70;;;15.30;98.00;;;;;;6226160;23;20188;-87
2021/09/29 17:18:55;;;;;;;1.20;0.70;;;15.10;98.20;;;;;;6224534;23;20160;-85
2021/09/29 17:21:24;;;;;;;1.93;0.90;;;15.00;98.60;;;;;;6219029;23;20202;-88
2021/09/29 17:23:51;;;;;;;3.57;1.10;;;15.00;98.60;;;;;;6221668;23;20234;-86
2021/09/29 17:26:17;;;;;;;3.73;1.30;;;15.00;98.80;;;;;;6220340;23;20164;-86
2021/09/29 17:28:48;;;;;;;1.93;0.90;;;14.80;99.30;;;;;;6220994;23;20578;-85
2021/09/29 17:31:17;;;;;;;1.83;1.10;;;14.70;99.40;;;;;;6218243;23;20185;-87
2021/09/29 17:34:05;;;;;;;5.90;1.13;;;14.60;99.80;;;;;;6220172;23;20160;-86
2021/09/29 17:36:43;;;;;;;5.67;1.07;;;14.60;99.90;;;;;;6220119;23;20175;-86
2021/09/29 17:53:22;;;;;;;3.47;0.90;;;14.00;99.90;;;;;;6247000;23;20638;-87
2021/09/29 17:55:48;;;;;;;3.57;1.20;;;13.90;99.90;;;;;;6246916;23;20171;-87
2021/09/29 17:58:15;;;;;;;2.43;0.87;;;13.80;99.90;;;;;;6247201;23;20223;-87
2021/09/29 18:00:44;;;;;;;2.57;1.17;;;13.90;99.90;;;;;;6220273;23;20162;-87
2021/09/29 18:03:14;;;;;;;4.67;1.23;;;13.90;99.90;;;;;;6220197;23;20534;-87
2021/09/29 18:05:51;;;;;;;1.97;1.17;;;14.00;99.90;;;;;;6218520;23;20190;-87
2021/09/29 18:08:16;;;;;;;3.00;1.27;;;14.20;99.90;;;;;;6212122;23;20158;-87
2021/09/29 18:10:45;;;;;;;3.30;1.10;;;14.10;99.90;;;;;;6214156;23;20226;-87
2021/09/29 18:13:12;;;;;;;3.07;1.10;;;14.20;99.90;;;;;;6214461;23;20560;-86
2021/09/29 18:15:41;;;;;;;3.00;1.17;;;14.20;99.90;;;;;;6211901;23;20163;-87
2021/09/29 18:18:10;;;;;;;3.17;1.20;;;14.30;99.90;;;;;;6214025;23;20156;-87
2021/09/29 18:20:36;;;;;;;4.87;1.30;;;14.30;99.90;;;;;;6218345;23;20151;-87
2021/09/29 18:23:05;;;;;;;2.10;0.87;;;14.20;99.90;;;;;;6219492;23;20151;-87
2021/09/29 18:25:35;;;;;;;2.93;1.10;;;14.10;99.90;;;;;;6217757;23;20155;-88
2021/09/29 18:28:01;;;;;;;2.60;1.23;;;14.00;99.90;;;;;;6219059;23;20170;-85
2021/09/29 18:30:27;;;;;;;2.40;1.60;;;13.90;99.90;;;;;;6216291;23;20226;-86
2021/09/29 18:32:56;;;;;;;6.33;2.60;;;13.80;99.90;;;;;;6212970;23;20159;-86
2021/09/29 18:35:37;;;;;;;6.07;2.37;;;13.70;99.90;;;;;;6213347;23;20162;-86
2021/09/29 18:38:09;;;;;;;3.10;1.77;;;13.70;99.90;;;;;;6211988;23;20159;-85
2021/09/29 18:40:34;;;;;;;7.50;2.03;;;13.90;99.90;;;;;;6214044;23;20603;-86
2021/09/29 18:43:00;;;;;;;4.80;1.37;;;13.90;99.90;;;;;;6214422;23;20155;-85
2021/09/29 18:45:27;;;;;;;4.43;2.13;;;13.90;99.90;;;;;;6211162;23;20597;-85
2021/09/29 18:47:53;;;;;;;4.90;1.40;;;13.90;99.90;;;;;;6216086;23;20156;-85
2021/09/29 18:50:19;;;;;;;4.40;1.33;;;13.90;99.90;;;;;;6217201;23;20154;-88
2021/09/29 18:52:48;;;;;;;6.27;1.30;;;14.00;99.90;;;;;;6215233;23;20186;-86
2021/09/29 18:55:17;;;;;;;6.17;1.60;;;13.90;99.90;;;;;;6214003;23;20226;-87
2021/09/29 19:08:22;;;;;;;2.57;1.50;;;13.80;99.90;;;;;;6243363;23;20476;-85
2021/09/29 19:10:48;;;;;;;3.63;1.70;;;13.80;99.90;;;;;;6214975;23;20151;-86
2021/09/29 19:13:19;;;;;;;4.67;1.30;;;13.90;99.90;;;;;;6217754;23;20155;-85
2021/09/29 19:15:45;;;;;;;5.33;1.60;;;13.90;99.90;;;;;;6217848;23;20186;-85
2021/09/29 19:18:11;;;;;;;5.57;1.73;;;13.90;99.90;;;;;;6217853;23;20205;-85
2021/09/29 19:20:39;;;;;;;7.07;1.80;;;13.90;99.90;;;;;;6216583;23;20231;-85
2021/09/29 19:23:04;;;;;;;2.00;1.43;;;14.00;99.90;;;;;;6214687;23;20156;-85
2021/09/29 19:25:30;;;;;;;5.13;1.90;;;14.10;99.90;;;;;;6215644;23;20197;-84
2021/09/29 19:28:00;;;;;;;4.00;2.00;;;14.00;99.90;;;;;;6214692;23;20155;-83
2021/09/29 19:30:26;;;;;;;6.10;2.10;;;14.00;99.90;;;;;;6214422;23;20206;-85
2021/09/29 19:32:56;;;;;;;5.63;2.23;;;14.00;99.90;;;;;;6215918;23;20164;-83
2021/09/29 19:35:24;;;;;;;3.30;1.70;;;13.90;99.90;;;;;;6219654;23;20147;-83
2021/09/29 19:37:51;;;;;;;3.60;1.80;;;14.00;99.90;;;;;;6216697;23;20253;-86
2021/09/29 19:40:19;;;;;;;5.73;2.00;;;14.00;99.90;;;;;;6214189;23;20157;-83
2021/09/29 19:42:47;;;;;;;2.90;1.70;;;14.00;99.90;;;;;;6214858;23;20188;-85
2021/09/29 19:45:14;;;;;;;8.50;1.90;;;14.00;99.90;;;;;;6212184;23;20163;-83
2021/09/29 20:09:23;;;;;;;7.53;1.70;;;13.60;99.90;;;;;;6244114;23;20162;-83
2021/09/29 20:11:49;;;;;;;6.90;1.80;;;13.60;99.90;;;;;;6215717;23;20568;-83
2021/09/29 20:14:17;;;;;;;6.17;1.90;;;13.70;99.90;;;;;;6242706;23;20536;-83
2021/09/29 20:16:45;;;;;;;5.57;2.13;;;13.70;99.90;;;;;;6243771;23;20198;-83
2021/09/29 20:19:11;;;;;;;4.73;1.37;;;13.70;99.90;;;;;;6242627;23;20175;-82
2021/09/29 20:21:37;;;;;;;6.10;1.80;;;13.50;99.90;;;;;;6215564;23;20159;-83
2021/09/29 20:24:04;;;;;;;5.70;1.83;;;13.40;99.90;;;;;;6219475;23;20147;-83
2021/09/29 20:26:30;;;;;;;8.03;2.10;;;13.60;99.90;;;;;;6221492;23;20163;-85
2021/09/29 20:28:56;;;;;;;5.07;1.60;;;13.60;99.90;;;;;;6221226;23;20163;-85
2021/09/29 20:31:22;;;;;;;9.93;2.03;;;13.50;99.90;;;;;;6220841;23;20505;-83
2021/09/29 20:34:04;;;;;;;5.53;1.33;;;13.50;99.90;;;;;;6220664;23;20162;-85
2021/09/29 20:42:22;;;;;;;6.13;1.50;;;13.30;99.90;;;;;;6237297;23;20238;-80
2021/09/29 20:44:49;;;;;;;5.93;1.43;;;13.20;99.90;;;;;;6219274;23;20151;-81
2021/09/29 20:47:16;;;;;;;4.50;1.33;;;13.20;99.90;;;;;;6246444;23;20139;-78
2021/09/29 20:49:45;;;;;;;3.40;1.47;;;13.10;99.90;;;;;;6242888;23;20158;-78
2021/09/29 20:52:11;;;;;;;2.67;1.30;;;13.20;99.90;;;;;;6245509;23;20138;-80
2021/09/29 20:54:38;;;;;;;4.37;1.40;;;13.40;99.90;;;;;;6217675;23;20237;-78
2021/09/29 20:57:07;;;;;;;4.67;1.20;;;13.40;99.90;;;;;;6245983;23;20167;-77
2021/09/29 20:59:33;;;;;;;5.27;1.10;;;13.50;99.90;;;;;;6218683;23;20661;-82
2021/09/29 21:01:58;;;;;;;6.17;1.30;;;13.40;99.90;;;;;;6218770;23;20175;-77
2021/09/29 21:04:24;;;;;;;2.50;0.90;;;13.40;99.90;;;;;;6218021;23;20179;-79
2021/09/29 21:06:50;;;;;;;5.67;1.30;;;13.40;99.90;;;;;;6244753;23;20207;-81
2021/09/29 21:09:18;;;;;;;2.60;1.37;;;13.40;99.90;;;;;;6245336;23;20140;-79
2021/09/29 21:20:09;;;;;;;2.50;1.00;;;13.20;99.90;;;;;;6246083;23;20150;-79
2021/09/29 21:22:36;;;;;;;4.77;0.90;;;13.20;99.90;;;;;;6245522;23;20136;-80
2021/09/29 21:25:02;;;;;;;4.47;1.20;;;13.30;99.90;;;;;;6246629;23;20540;-78
2021/09/29 21:27:28;;;;;;;4.23;1.30;;;13.30;99.90;;;;;;6219322;23;20159;-79
2021/09/29 21:29:55;;;;;;;4.33;1.53;;;13.30;99.90;;;;;;6245378;23;20190;-78
2021/09/29 21:32:21;;;;;;;4.53;1.10;;;13.40;99.90;;;;;;6219571;23;20199;-77
2021/09/29 21:34:50;;;;;;;2.97;1.50;;;13.40;99.90;;;;;;6245670;23;20131;-78
2021/09/29 21:37:23;;;;;;;3.43;1.20;;;13.40;99.90;;;;;;6244823;23;20309;-78
2021/09/29 22:18:19;;;;;;;7.60;1.57;;;13.00;99.90;;;;;;6160975;23;20180;-78
2021/09/29 22:54:20;;;;;;;3.70;1.47;;;12.60;99.90;;;;;;6245029;23;20151;-78
2021/09/29 23:04:46;;;;;;;5.13;1.70;;;12.60;99.90;;;;;;6253459;23;20217;-76
2021/09/29 23:09:51;;;;;;;4.00;1.50;;;12.60;99.90;;;;;;6254188;23;20142;-81
2021/09/29 23:33:46;;;;;;;4.57;1.57;;;12.40;99.90;;;;;;6245194;23;20141;-76
2021/09/29 23:36:12;;;;;;;6.20;1.63;;;12.30;99.90;;;;;;6245345;23;20174;-79
2021/09/29 23:38:38;;;;;;;3.60;1.30;;;12.20;99.90;;;;;;6218094;23;20167;-79
2021/09/29 23:41:07;;;;;;;4.13;1.17;;;12.20;99.90;;;;;;6245444;23;20230;-83
2021/09/29 23:43:32;;;;;;;4.53;1.47;;;12.20;99.90;;;;;;6245742;23;20221;-82
2021/09/29 23:45:58;;;;;;;3.50;1.60;;;12.10;99.90;;;;;;6245342;23;20162;-83
2021/09/29 23:48:24;;;;;;;7.10;1.70;;;12.10;99.90;;;;;;6245428;23;20134;-82
2021/09/29 23:50:51;;;;;;;8.20;1.43;;;12.10;99.90;;;;;;6245335;23;20561;-83
2021/09/29 23:53:17;;;;;;;7.77;1.83;;;12.10;99.90;;;;;;6218397;23;20155;-82
2021/09/29 23:55:42;;;;;;;3.57;1.20;;;12.00;99.90;;;;;;6218825;23;20163;-82
2021/09/29 23:58:09;;;;;;;4.50;1.43;;;12.00;99.90;;;;;;6245375;23;20174;-83
